sensor_id;sensor_type;location;lat;lon;timestamp;P1;durP1;ratioP1;P2;durP2;ratioP2
76714;SDS011;65644;44.990;20.288;2024-01-27T00:02:04;69.30;;;41.55;;
76714;SDS011;65644;44.990;20.288;2024-01-27T00:04:30;69.15;;;39.75;;
76714;SDS011;65644;44.990;20.288;2024-01-27T00:06:56;63.28;;;40.28;;
76714;SDS011;65644;44.990;20.288;2024-01-27T00:09:22;69.68;;;41.92;;
76714;SDS011;65644;44.990;20.288;2024-01-27T00:11:48;73.67;;;42.53;;
76714;SDS011;65644;44.990;20.288;2024-01-27T00:14:14;66.40;;;41.43;;
76714;SDS011;65644;44.990;20.288;2024-01-27T00:16:40;63.87;;;39.47;;
76714;SDS011;65644;44.990;20.288;2024-01-27T00:19:06;65.87;;;38.77;;
76714;SDS011;65644;44.990;20.288;2024-01-27T00:21:32;62.53;;;35.90;;
76714;SDS011;65644;44.990;20.288;2024-01-27T00:23:58;63.10;;;37.22;;
76714;SDS011;65644;44.990;20.288;2024-01-27T00:26:28;58.55;;;36.78;;
76714;SDS011;65644;44.990;20.288;2024-01-27T00:28:54;55.63;;;36.63;;
76714;SDS011;65644;44.990;20.288;2024-01-27T00:31:20;61.37;;;35.97;;
76714;SDS011;65644;44.990;20.288;2024-01-27T00:33:46;55.83;;;34.43;;
76714;SDS011;65644;44.990;20.288;2024-01-27T00:36:12;53.20;;;31.87;;
76714;SDS011;65644;44.990;20.288;2024-01-27T00:38:38;54.53;;;26.83;;
76714;SDS011;65644;44.990;20.288;2024-01-27T00:41:05;42.93;;;26.53;;
76714;SDS011;65644;44.990;20.288;2024-01-27T00:43:31;51.57;;;27.87;;
76714;SDS011;65644;44.990;20.288;2024-01-27T00:45:57;51.60;;;28.60;;
76714;SDS011;65644;44.990;20.288;2024-01-27T00:48:23;52.87;;;28.00;;
76714;SDS011;65644;44.990;20.288;2024-01-27T00:50:49;51.87;;;30.27;;
76714;SDS011;65644;44.990;20.288;2024-01-27T00:53:16;59.83;;;32.97;;
76714;SDS011;65644;44.990;20.288;2024-01-27T00:55:43;52.87;;;32.63;;
76714;SDS011;65644;44.990;20.288;2024-01-27T00:58:09;54.20;;;31.47;;
76714;SDS011;65644;44.990;20.288;2024-01-27T01:00:35;53.80;;;31.58;;
76714;SDS011;65644;44.990;20.288;2024-01-27T01:03:01;51.40;;;31.40;;
76714;SDS011;65644;44.990;20.288;2024-01-27T01:05:27;52.40;;;32.33;;
76714;SDS011;65644;44.990;20.288;2024-01-27T01:07:53;48.63;;;30.57;;
76714;SDS011;65644;44.990;20.288;2024-01-27T01:10:19;53.00;;;31.15;;
76714;SDS011;65644;44.990;20.288;2024-01-27T01:12:45;51.60;;;30.20;;
76714;SDS011;65644;44.990;20.288;2024-01-27T01:15:11;54.00;;;31.23;;
76714;SDS011;65644;44.990;20.288;2024-01-27T01:17:38;55.07;;;31.33;;
76714;SDS011;65644;44.990;20.288;2024-01-27T01:20:04;52.22;;;30.70;;
76714;SDS011;65644;44.990;20.288;2024-01-27T01:22:30;55.38;;;30.20;;
76714;SDS011;65644;44.990;20.288;2024-01-27T01:24:56;56.30;;;30.70;;
76714;SDS011;65644;44.990;20.288;2024-01-27T01:27:23;51.00;;;30.07;;
76714;SDS011;65644;44.990;20.288;2024-01-27T01:29:49;55.47;;;31.55;;
76714;SDS011;65644;44.990;20.288;2024-01-27T01:32:15;59.87;;;31.97;;
76714;SDS011;65644;44.990;20.288;2024-01-27T01:34:41;50.77;;;31.57;;
76714;SDS011;65644;44.990;20.288;2024-01-27T01:37:07;54.80;;;32.85;;
76714;SDS011;65644;44.990;20.288;2024-01-27T01:39:33;60.33;;;32.63;;
76714;SDS011;65644;44.990;20.288;2024-01-27T01:41:59;61.35;;;33.00;;
76714;SDS011;65644;44.990;20.288;2024-01-27T01:44:29;56.90;;;31.75;;
76714;SDS011;65644;44.990;20.288;2024-01-27T01:46:56;56.28;;;33.78;;
76714;SDS011;65644;44.990;20.288;2024-01-27T01:49:22;55.70;;;33.30;;
76714;SDS011;65644;44.990;20.288;2024-01-27T01:51:48;53.83;;;33.23;;
76714;SDS011;65644;44.990;20.288;2024-01-27T01:54:14;54.13;;;32.40;;
76714;SDS011;65644;44.990;20.288;2024-01-27T01:56:42;51.80;;;30.05;;
76714;SDS011;65644;44.990;20.288;2024-01-27T01:59:08;41.63;;;25.25;;
76714;SDS011;65644;44.990;20.288;2024-01-27T02:01:34;38.75;;;23.67;;
76714;SDS011;65644;44.990;20.288;2024-01-27T02:04:00;34.33;;;22.95;;
76714;SDS011;65644;44.990;20.288;2024-01-27T02:06:26;37.17;;;19.53;;
76714;SDS011;65644;44.990;20.288;2024-01-27T02:08:52;28.00;;;17.38;;
76714;SDS011;65644;44.990;20.288;2024-01-27T02:11:18;17.45;;;10.20;;
76714;SDS011;65644;44.990;20.288;2024-01-27T02:13:44;16.83;;;9.70;;
76714;SDS011;65644;44.990;20.288;2024-01-27T02:16:10;15.13;;;9.43;;
76714;SDS011;65644;44.990;20.288;2024-01-27T02:18:36;22.58;;;11.35;;
76714;SDS011;65644;44.990;20.288;2024-01-27T02:21:02;20.85;;;12.18;;
76714;SDS011;65644;44.990;20.288;2024-01-27T02:23:28;21.95;;;12.50;;
76714;SDS011;65644;44.990;20.288;2024-01-27T02:25:55;23.50;;;12.65;;
76714;SDS011;65644;44.990;20.288;2024-01-27T02:28:21;23.27;;;12.10;;
76714;SDS011;65644;44.990;20.288;2024-01-27T02:30:48;19.08;;;11.30;;
76714;SDS011;65644;44.990;20.288;2024-01-27T02:33:14;22.98;;;11.63;;
76714;SDS011;65644;44.990;20.288;2024-01-27T02:35:40;18.95;;;11.35;;
76714;SDS011;65644;44.990;20.288;2024-01-27T02:38:08;20.55;;;9.57;;
76714;SDS011;65644;44.990;20.288;2024-01-27T02:40:34;13.30;;;7.38;;
76714;SDS011;65644;44.990;20.288;2024-01-27T02:43:00;14.32;;;5.88;;
76714;SDS011;65644;44.990;20.288;2024-01-27T02:45:26;11.25;;;5.10;;
76714;SDS011;65644;44.990;20.288;2024-01-27T02:47:53;12.02;;;5.10;;
76714;SDS011;65644;44.990;20.288;2024-01-27T02:50:19;9.38;;;4.78;;
76714;SDS011;65644;44.990;20.288;2024-01-27T02:52:45;10.07;;;4.28;;
76714;SDS011;65644;44.990;20.288;2024-01-27T02:55:11;9.43;;;3.90;;
76714;SDS011;65644;44.990;20.288;2024-01-27T02:57:37;7.82;;;4.07;;
76714;SDS011;65644;44.990;20.288;2024-01-27T03:00:03;7.20;;;3.63;;
76714;SDS011;65644;44.990;20.288;2024-01-27T03:02:30;10.25;;;3.88;;
76714;SDS011;65644;44.990;20.288;2024-01-27T03:04:56;7.95;;;3.50;;
76714;SDS011;65644;44.990;20.288;2024-01-27T03:07:22;8.30;;;3.72;;
76714;SDS011;65644;44.990;20.288;2024-01-27T03:09:48;7.32;;;3.35;;
76714;SDS011;65644;44.990;20.288;2024-01-27T03:12:14;10.95;;;3.60;;
76714;SDS011;65644;44.990;20.288;2024-01-27T03:14:41;5.30;;;3.05;;
76714;SDS011;65644;44.990;20.288;2024-01-27T03:17:07;8.23;;;3.15;;
76714;SDS011;65644;44.990;20.288;2024-01-27T03:19:33;9.48;;;4.10;;
76714;SDS011;65644;44.990;20.288;2024-01-27T03:22:00;7.63;;;3.60;;
76714;SDS011;65644;44.990;20.288;2024-01-27T03:24:26;6.80;;;2.72;;
76714;SDS011;65644;44.990;20.288;2024-01-27T03:26:52;6.43;;;3.15;;
76714;SDS011;65644;44.990;20.288;2024-01-27T03:29:18;5.03;;;3.08;;
76714;SDS011;65644;44.990;20.288;2024-01-27T03:31:44;4.03;;;2.42;;
76714;SDS011;65644;44.990;20.288;2024-01-27T03:34:10;5.97;;;2.83;;
76714;SDS011;65644;44.990;20.288;2024-01-27T03:36:36;6.93;;;2.92;;
76714;SDS011;65644;44.990;20.288;2024-01-27T03:39:02;5.38;;;3.05;;
76714;SDS011;65644;44.990;20.288;2024-01-27T03:41:29;4.55;;;2.38;;
76714;SDS011;65644;44.990;20.288;2024-01-27T03:43:55;6.00;;;3.08;;
76714;SDS011;65644;44.990;20.288;2024-01-27T03:46:21;5.60;;;2.75;;
76714;SDS011;65644;44.990;20.288;2024-01-27T03:48:47;6.72;;;2.70;;
76714;SDS011;65644;44.990;20.288;2024-01-27T03:51:13;5.05;;;2.45;;
76714;SDS011;65644;44.990;20.288;2024-01-27T03:53:39;5.95;;;2.00;;
76714;SDS011;65644;44.990;20.288;2024-01-27T03:56:05;3.90;;;2.15;;
76714;SDS011;65644;44.990;20.288;2024-01-27T03:58:31;4.45;;;1.80;;
76714;SDS011;65644;44.990;20.288;2024-01-27T04:00:57;3.65;;;1.70;;
76714;SDS011;65644;44.990;20.288;2024-01-27T04:03:23;5.50;;;2.28;;
76714;SDS011;65644;44.990;20.288;2024-01-27T04:05:50;2.67;;;1.83;;
76714;SDS011;65644;44.990;20.288;2024-01-27T04:08:16;4.05;;;1.52;;
76714;SDS011;65644;44.990;20.288;2024-01-27T04:10:42;4.40;;;1.88;;
76714;SDS011;65644;44.990;20.288;2024-01-27T04:13:08;4.22;;;1.52;;
76714;SDS011;65644;44.990;20.288;2024-01-27T04:15:34;5.53;;;2.55;;
76714;SDS011;65644;44.990;20.288;2024-01-27T04:18:06;7.25;;;2.90;;
76714;SDS011;65644;44.990;20.288;2024-01-27T04:20:33;7.65;;;2.75;;
76714;SDS011;65644;44.990;20.288;2024-01-27T04:23:00;10.25;;;3.15;;
76714;SDS011;65644;44.990;20.288;2024-01-27T04:25:26;5.93;;;2.38;;
76714;SDS011;65644;44.990;20.288;2024-01-27T04:27:52;2.38;;;1.10;;
76714;SDS011;65644;44.990;20.288;2024-01-27T04:30:18;2.72;;;0.80;;
76714;SDS011;65644;44.990;20.288;2024-01-27T04:32:44;1.17;;;0.88;;
76714;SDS011;65644;44.990;20.288;2024-01-27T04:35:11;3.55;;;0.90;;
76714;SDS011;65644;44.990;20.288;2024-01-27T04:37:37;4.85;;;1.77;;
76714;SDS011;65644;44.990;20.288;2024-01-27T04:40:04;2.47;;;1.60;;
76714;SDS011;65644;44.990;20.288;2024-01-27T04:42:33;2.15;;;0.55;;
76714;SDS011;65644;44.990;20.288;2024-01-27T04:45:00;2.40;;;0.52;;
76714;SDS011;65644;44.990;20.288;2024-01-27T04:47:26;0.45;;;0.38;;
76714;SDS011;65644;44.990;20.288;2024-01-27T04:49:53;2.08;;;0.30;;
76714;SDS011;65644;44.990;20.288;2024-01-27T04:52:19;1.15;;;0.30;;
76714;SDS011;65644;44.990;20.288;2024-01-27T04:54:46;3.20;;;0.40;;
76714;SDS011;65644;44.990;20.288;2024-01-27T04:57:12;0.98;;;0.20;;
76714;SDS011;65644;44.990;20.288;2024-01-27T04:59:38;1.42;;;0.10;;
76714;SDS011;65644;44.990;20.288;2024-01-27T05:02:04;1.50;;;0.17;;
76714;SDS011;65644;44.990;20.288;2024-01-27T05:04:30;0.98;;;0.30;;
76714;SDS011;65644;44.990;20.288;2024-01-27T05:06:56;2.22;;;0.25;;
76714;SDS011;65644;44.990;20.288;2024-01-27T05:09:22;1.98;;;0.20;;
76714;SDS011;65644;44.990;20.288;2024-01-27T05:11:48;1.90;;;0.32;;
76714;SDS011;65644;44.990;20.288;2024-01-27T05:14:16;2.13;;;0.13;;
76714;SDS011;65644;44.990;20.288;2024-01-27T05:16:43;1.40;;;0.13;;
76714;SDS011;65644;44.990;20.288;2024-01-27T05:19:09;1.40;;;0.00;;
76714;SDS011;65644;44.990;20.288;2024-01-27T05:21:36;0.95;;;0.20;;
76714;SDS011;65644;44.990;20.288;2024-01-27T05:24:02;0.10;;;0.10;;
76714;SDS011;65644;44.990;20.288;2024-01-27T05:26:28;0.73;;;0.10;;
76714;SDS011;65644;44.990;20.288;2024-01-27T05:28:54;1.88;;;0.28;;
76714;SDS011;65644;44.990;20.288;2024-01-27T05:31:20;0.75;;;0.10;;
76714;SDS011;65644;44.990;20.288;2024-01-27T05:33:46;0.77;;;0.20;;
76714;SDS011;65644;44.990;20.288;2024-01-27T05:36:12;0.10;;;0.00;;
76714;SDS011;65644;44.990;20.288;2024-01-27T05:38:38;1.85;;;0.10;;
76714;SDS011;65644;44.990;20.288;2024-01-27T05:41:04;1.70;;;0.20;;
76714;SDS011;65644;44.990;20.288;2024-01-27T05:43:31;1.05;;;0.10;;
76714;SDS011;65644;44.990;20.288;2024-01-27T05:45:57;0.10;;;0.10;;
76714;SDS011;65644;44.990;20.288;2024-01-27T05:48:23;0.98;;;0.20;;
76714;SDS011;65644;44.990;20.288;2024-01-27T05:50:58;3.38;;;0.20;;
76714;SDS011;65644;44.990;20.288;2024-01-27T05:53:25;0.95;;;0.20;;
76714;SDS011;65644;44.990;20.288;2024-01-27T05:55:51;1.25;;;0.10;;
76714;SDS011;65644;44.990;20.288;2024-01-27T05:58:18;2.20;;;0.30;;
76714;SDS011;65644;44.990;20.288;2024-01-27T06:00:48;0.73;;;0.13;;
76714;SDS011;65644;44.990;20.288;2024-01-27T06:03:14;0.13;;;0.10;;
76714;SDS011;65644;44.990;20.288;2024-01-27T06:05:41;2.17;;;0.22;;
76714;SDS011;65644;44.990;20.288;2024-01-27T06:08:08;2.08;;;0.30;;
76714;SDS011;65644;44.990;20.288;2024-01-27T06:10:34;2.33;;;0.22;;
76714;SDS011;65644;44.990;20.288;2024-01-27T06:13:02;0.82;;;0.17;;
76714;SDS011;65644;44.990;20.288;2024-01-27T06:15:28;2.13;;;0.20;;
76714;SDS011;65644;44.990;20.288;2024-01-27T06:17:54;1.80;;;0.30;;
76714;SDS011;65644;44.990;20.288;2024-01-27T06:20:20;1.40;;;0.10;;
76714;SDS011;65644;44.990;20.288;2024-01-27T06:22:46;1.10;;;0.10;;
76714;SDS011;65644;44.990;20.288;2024-01-27T06:25:12;6.88;;;0.60;;
76714;SDS011;65644;44.990;20.288;2024-01-27T06:27:38;2.30;;;0.47;;
76714;SDS011;65644;44.990;20.288;2024-01-27T06:30:07;1.15;;;0.20;;
76714;SDS011;65644;44.990;20.288;2024-01-27T06:32:33;0.55;;;0.20;;
76714;SDS011;65644;44.990;20.288;2024-01-27T06:34:59;1.67;;;0.20;;
76714;SDS011;65644;44.990;20.288;2024-01-27T06:37:25;0.40;;;0.10;;
76714;SDS011;65644;44.990;20.288;2024-01-27T06:39:51;0.22;;;0.10;;
76714;SDS011;65644;44.990;20.288;2024-01-27T06:42:17;2.03;;;0.20;;
76714;SDS011;65644;44.990;20.288;2024-01-27T06:44:43;0.25;;;0.10;;
76714;SDS011;65644;44.990;20.288;2024-01-27T06:47:09;0.10;;;0.10;;
76714;SDS011;65644;44.990;20.288;2024-01-27T06:49:35;0.77;;;0.10;;
76714;SDS011;65644;44.990;20.288;2024-01-27T06:52:02;0.80;;;0.10;;
76714;SDS011;65644;44.990;20.288;2024-01-27T06:54:28;1.90;;;0.17;;
76714;SDS011;65644;44.990;20.288;2024-01-27T06:56:54;0.30;;;0.10;;
76714;SDS011;65644;44.990;20.288;2024-01-27T06:59:20;0.75;;;0.20;;
76714;SDS011;65644;44.990;20.288;2024-01-27T07:01:47;1.00;;;0.22;;
76714;SDS011;65644;44.990;20.288;2024-01-27T07:04:16;0.95;;;0.35;;
76714;SDS011;65644;44.990;20.288;2024-01-27T07:06:42;2.42;;;0.20;;
76714;SDS011;65644;44.990;20.288;2024-01-27T07:09:09;1.23;;;0.15;;
76714;SDS011;65644;44.990;20.288;2024-01-27T07:11:35;1.33;;;0.10;;
76714;SDS011;65644;44.990;20.288;2024-01-27T07:14:02;1.25;;;0.20;;
76714;SDS011;65644;44.990;20.288;2024-01-27T07:16:29;0.63;;;0.10;;
76714;SDS011;65644;44.990;20.288;2024-01-27T07:18:55;1.27;;;0.30;;
76714;SDS011;65644;44.990;20.288;2024-01-27T07:21:21;1.33;;;0.30;;
76714;SDS011;65644;44.990;20.288;2024-01-27T07:23:47;2.03;;;0.30;;
76714;SDS011;65644;44.990;20.288;2024-01-27T07:26:13;1.30;;;0.20;;
76714;SDS011;65644;44.990;20.288;2024-01-27T07:28:39;0.55;;;0.35;;
76714;SDS011;65644;44.990;20.288;2024-01-27T07:31:05;1.83;;;0.50;;
76714;SDS011;65644;44.990;20.288;2024-01-27T07:33:31;0.40;;;0.22;;
76714;SDS011;65644;44.990;20.288;2024-01-27T07:35:57;4.90;;;0.25;;
76714;SDS011;65644;44.990;20.288;2024-01-27T07:38:23;2.38;;;0.20;;
76714;SDS011;65644;44.990;20.288;2024-01-27T07:40:49;0.35;;;0.10;;
76714;SDS011;65644;44.990;20.288;2024-01-27T07:43:16;3.42;;;0.22;;
76714;SDS011;65644;44.990;20.288;2024-01-27T07:45:42;0.28;;;0.03;;
76714;SDS011;65644;44.990;20.288;2024-01-27T07:48:09;0.95;;;0.00;;
76714;SDS011;65644;44.990;20.288;2024-01-27T07:50:35;0.85;;;0.00;;
76714;SDS011;65644;44.990;20.288;2024-01-27T07:53:01;3.00;;;1.10;;
76714;SDS011;65644;44.990;20.288;2024-01-27T07:55:28;2.28;;;1.27;;
76714;SDS011;65644;44.990;20.288;2024-01-27T07:57:54;1.88;;;1.25;;
76714;SDS011;65644;44.990;20.288;2024-01-27T08:00:20;2.83;;;1.10;;
76714;SDS011;65644;44.990;20.288;2024-01-27T08:02:46;1.80;;;0.80;;
76714;SDS011;65644;44.990;20.288;2024-01-27T08:05:12;0.77;;;0.20;;
76714;SDS011;65644;44.990;20.288;2024-01-27T08:07:38;0.60;;;0.10;;
76714;SDS011;65644;44.990;20.288;2024-01-27T08:10:04;2.17;;;0.10;;
76714;SDS011;65644;44.990;20.288;2024-01-27T08:12:31;1.50;;;0.15;;
76714;SDS011;65644;44.990;20.288;2024-01-27T08:14:57;1.35;;;0.40;;
76714;SDS011;65644;44.990;20.288;2024-01-27T08:17:23;3.65;;;0.20;;
76714;SDS011;65644;44.990;20.288;2024-01-27T08:19:50;1.45;;;0.10;;
76714;SDS011;65644;44.990;20.288;2024-01-27T08:22:16;2.88;;;0.30;;
76714;SDS011;65644;44.990;20.288;2024-01-27T08:24:42;1.48;;;0.10;;
76714;SDS011;65644;44.990;20.288;2024-01-27T08:27:09;1.33;;;0.77;;
76714;SDS011;65644;44.990;20.288;2024-01-27T08:29:35;3.13;;;0.32;;
76714;SDS011;65644;44.990;20.288;2024-01-27T08:32:01;1.73;;;0.50;;
76714;SDS011;65644;44.990;20.288;2024-01-27T08:34:27;2.10;;;0.20;;
76714;SDS011;65644;44.990;20.288;2024-01-27T08:36:53;2.45;;;0.70;;
76714;SDS011;65644;44.990;20.288;2024-01-27T08:39:23;2.38;;;0.30;;
76714;SDS011;65644;44.990;20.288;2024-01-27T08:41:49;3.38;;;0.57;;
76714;SDS011;65644;44.990;20.288;2024-01-27T08:44:15;2.38;;;0.30;;
76714;SDS011;65644;44.990;20.288;2024-01-27T08:46:41;2.30;;;0.45;;
76714;SDS011;65644;44.990;20.288;2024-01-27T08:49:08;4.63;;;0.52;;
76714;SDS011;65644;44.990;20.288;2024-01-27T08:51:34;3.08;;;0.90;;
76714;SDS011;65644;44.990;20.288;2024-01-27T08:54:00;1.65;;;0.28;;
76714;SDS011;65644;44.990;20.288;2024-01-27T08:56:26;3.47;;;0.52;;
76714;SDS011;65644;44.990;20.288;2024-01-27T08:58:52;3.55;;;0.75;;
76714;SDS011;65644;44.990;20.288;2024-01-27T09:01:18;3.35;;;0.35;;
76714;SDS011;65644;44.990;20.288;2024-01-27T09:03:45;3.72;;;1.02;;
76714;SDS011;65644;44.990;20.288;2024-01-27T09:06:11;2.55;;;0.38;;
76714;SDS011;65644;44.990;20.288;2024-01-27T09:08:37;3.42;;;0.20;;
76714;SDS011;65644;44.990;20.288;2024-01-27T09:11:03;2.13;;;0.50;;
76714;SDS011;65644;44.990;20.288;2024-01-27T09:13:29;2.72;;;0.47;;
76714;SDS011;65644;44.990;20.288;2024-01-27T09:15:59;2.50;;;0.50;;
76714;SDS011;65644;44.990;20.288;2024-01-27T09:18:25;3.35;;;0.50;;
76714;SDS011;65644;44.990;20.288;2024-01-27T09:20:52;3.60;;;0.32;;
76714;SDS011;65644;44.990;20.288;2024-01-27T09:23:18;3.42;;;0.77;;
76714;SDS011;65644;44.990;20.288;2024-01-27T09:25:44;3.97;;;0.90;;
76714;SDS011;65644;44.990;20.288;2024-01-27T09:28:10;3.88;;;0.52;;
76714;SDS011;65644;44.990;20.288;2024-01-27T09:30:37;5.18;;;0.47;;
76714;SDS011;65644;44.990;20.288;2024-01-27T09:33:03;3.78;;;1.00;;
76714;SDS011;65644;44.990;20.288;2024-01-27T09:35:29;3.28;;;0.50;;
76714;SDS011;65644;44.990;20.288;2024-01-27T09:37:55;4.75;;;0.50;;
76714;SDS011;65644;44.990;20.288;2024-01-27T09:40:21;3.67;;;0.40;;
76714;SDS011;65644;44.990;20.288;2024-01-27T09:42:51;2.03;;;0.30;;
76714;SDS011;65644;44.990;20.288;2024-01-27T09:45:18;2.40;;;0.40;;
76714;SDS011;65644;44.990;20.288;2024-01-27T09:47:45;2.70;;;0.60;;
76714;SDS011;65644;44.990;20.288;2024-01-27T09:50:14;4.78;;;0.70;;
76714;SDS011;65644;44.990;20.288;2024-01-27T09:52:41;5.32;;;0.77;;
76714;SDS011;65644;44.990;20.288;2024-01-27T09:55:09;2.03;;;0.20;;
76714;SDS011;65644;44.990;20.288;2024-01-27T09:57:36;1.20;;;0.40;;
76714;SDS011;65644;44.990;20.288;2024-01-27T10:00:04;2.90;;;0.68;;
76714;SDS011;65644;44.990;20.288;2024-01-27T10:02:31;3.58;;;0.40;;
76714;SDS011;65644;44.990;20.288;2024-01-27T10:04:58;3.25;;;0.50;;
76714;SDS011;65644;44.990;20.288;2024-01-27T10:07:24;0.85;;;0.17;;
76714;SDS011;65644;44.990;20.288;2024-01-27T10:09:50;3.95;;;0.40;;
76714;SDS011;65644;44.990;20.288;2024-01-27T10:12:16;3.60;;;0.55;;
76714;SDS011;65644;44.990;20.288;2024-01-27T10:14:43;2.33;;;0.30;;
76714;SDS011;65644;44.990;20.288;2024-01-27T10:17:20;2.47;;;0.40;;
76714;SDS011;65644;44.990;20.288;2024-01-27T10:19:47;5.18;;;0.75;;
76714;SDS011;65644;44.990;20.288;2024-01-27T10:22:13;4.55;;;0.40;;
76714;SDS011;65644;44.990;20.288;2024-01-27T10:24:39;10.07;;;1.30;;
76714;SDS011;65644;44.990;20.288;2024-01-27T10:27:05;3.50;;;0.32;;
76714;SDS011;65644;44.990;20.288;2024-01-27T10:29:31;1.15;;;0.13;;
76714;SDS011;65644;44.990;20.288;2024-01-27T10:32:07;2.53;;;0.40;;
76714;SDS011;65644;44.990;20.288;2024-01-27T10:34:34;4.18;;;0.35;;
76714;SDS011;65644;44.990;20.288;2024-01-27T10:37:00;6.10;;;0.73;;
76714;SDS011;65644;44.990;20.288;2024-01-27T10:39:26;2.28;;;0.50;;
76714;SDS011;65644;44.990;20.288;2024-01-27T10:41:53;3.05;;;0.82;;
76714;SDS011;65644;44.990;20.288;2024-01-27T10:44:19;3.65;;;0.40;;
76714;SDS011;65644;44.990;20.288;2024-01-27T10:46:46;3.00;;;0.57;;
76714;SDS011;65644;44.990;20.288;2024-01-27T10:49:13;4.05;;;0.40;;
76714;SDS011;65644;44.990;20.288;2024-01-27T10:51:45;7.05;;;0.88;;
76714;SDS011;65644;44.990;20.288;2024-01-27T10:54:15;1.92;;;0.30;;
76714;SDS011;65644;44.990;20.288;2024-01-27T10:56:44;3.13;;;0.40;;
76714;SDS011;65644;44.990;20.288;2024-01-27T10:59:11;7.72;;;1.20;;
76714;SDS011;65644;44.990;20.288;2024-01-27T11:01:37;6.38;;;0.80;;
76714;SDS011;65644;44.990;20.288;2024-01-27T11:04:03;2.85;;;0.63;;
76714;SDS011;65644;44.990;20.288;2024-01-27T11:06:32;2.97;;;0.50;;
76714;SDS011;65644;44.990;20.288;2024-01-27T11:09:00;4.63;;;0.30;;
76714;SDS011;65644;44.990;20.288;2024-01-27T11:11:30;2.53;;;0.60;;
76714;SDS011;65644;44.990;20.288;2024-01-27T11:13:56;4.43;;;0.32;;
76714;SDS011;65644;44.990;20.288;2024-01-27T11:16:22;3.95;;;0.20;;
76714;SDS011;65644;44.990;20.288;2024-01-27T11:18:48;5.75;;;0.30;;
76714;SDS011;65644;44.990;20.288;2024-01-27T11:21:15;3.03;;;0.32;;
76714;SDS011;65644;44.990;20.288;2024-01-27T11:23:41;3.33;;;0.47;;
76714;SDS011;65644;44.990;20.288;2024-01-27T11:26:08;1.02;;;0.30;;
76714;SDS011;65644;44.990;20.288;2024-01-27T11:28:35;2.42;;;0.20;;
76714;SDS011;65644;44.990;20.288;2024-01-27T11:31:05;0.60;;;0.20;;
76714;SDS011;65644;44.990;20.288;2024-01-27T11:33:31;3.75;;;0.45;;
76714;SDS011;65644;44.990;20.288;2024-01-27T11:36:07;2.75;;;0.30;;
76714;SDS011;65644;44.990;20.288;2024-01-27T11:41:02;1.30;;;0.30;;
76714;SDS011;65644;44.990;20.288;2024-01-27T11:43:28;2.65;;;0.30;;
76714;SDS011;65644;44.990;20.288;2024-01-27T11:45:57;3.00;;;0.30;;
76714;SDS011;65644;44.990;20.288;2024-01-27T11:48:23;2.20;;;0.40;;
76714;SDS011;65644;44.990;20.288;2024-01-27T11:51:01;2.35;;;0.20;;
76714;SDS011;65644;44.990;20.288;2024-01-27T11:53:27;3.10;;;0.10;;
76714;SDS011;65644;44.990;20.288;2024-01-27T11:55:54;1.67;;;0.25;;
76714;SDS011;65644;44.990;20.288;2024-01-27T11:58:24;4.47;;;0.75;;
76714;SDS011;65644;44.990;20.288;2024-01-27T12:00:50;3.50;;;0.30;;
76714;SDS011;65644;44.990;20.288;2024-01-27T12:03:16;4.72;;;0.50;;
76714;SDS011;65644;44.990;20.288;2024-01-27T12:05:42;3.35;;;0.32;;
76714;SDS011;65644;44.990;20.288;2024-01-27T12:08:09;4.20;;;0.50;;
76714;SDS011;65644;44.990;20.288;2024-01-27T12:10:35;1.55;;;0.10;;
76714;SDS011;65644;44.990;20.288;2024-01-27T12:13:02;4.00;;;0.47;;
76714;SDS011;65644;44.990;20.288;2024-01-27T12:15:28;5.40;;;0.55;;
76714;SDS011;65644;44.990;20.288;2024-01-27T12:17:54;1.58;;;0.70;;
76714;SDS011;65644;44.990;20.288;2024-01-27T12:20:21;2.28;;;0.35;;
76714;SDS011;65644;44.990;20.288;2024-01-27T12:22:48;10.13;;;0.98;;
76714;SDS011;65644;44.990;20.288;2024-01-27T12:25:16;2.38;;;0.50;;
76714;SDS011;65644;44.990;20.288;2024-01-27T12:27:43;2.10;;;0.47;;
76714;SDS011;65644;44.990;20.288;2024-01-27T12:30:09;1.38;;;0.10;;
76714;SDS011;65644;44.990;20.288;2024-01-27T12:32:35;5.85;;;0.63;;
76714;SDS011;65644;44.990;20.288;2024-01-27T12:35:08;9.52;;;0.80;;
76714;SDS011;65644;44.990;20.288;2024-01-27T12:37:34;4.40;;;0.38;;
76714;SDS011;65644;44.990;20.288;2024-01-27T12:40:00;1.98;;;0.40;;
76714;SDS011;65644;44.990;20.288;2024-01-27T12:42:27;4.00;;;0.30;;
76714;SDS011;65644;44.990;20.288;2024-01-27T12:44:53;4.45;;;0.35;;
76714;SDS011;65644;44.990;20.288;2024-01-27T12:47:19;1.13;;;0.35;;
76714;SDS011;65644;44.990;20.288;2024-01-27T12:49:45;3.13;;;0.35;;
76714;SDS011;65644;44.990;20.288;2024-01-27T12:52:11;3.85;;;0.28;;
76714;SDS011;65644;44.990;20.288;2024-01-27T12:54:38;0.57;;;0.20;;
76714;SDS011;65644;44.990;20.288;2024-01-27T12:57:04;1.67;;;0.20;;
76714;SDS011;65644;44.990;20.288;2024-01-27T12:59:32;11.57;;;0.73;;
76714;SDS011;65644;44.990;20.288;2024-01-27T13:01:58;1.27;;;0.20;;
76714;SDS011;65644;44.990;20.288;2024-01-27T13:04:24;1.00;;;0.20;;
76714;SDS011;65644;44.990;20.288;2024-01-27T13:06:51;1.63;;;0.20;;
76714;SDS011;65644;44.990;20.288;2024-01-27T13:09:19;4.03;;;0.73;;
76714;SDS011;65644;44.990;20.288;2024-01-27T13:11:45;2.50;;;0.32;;
76714;SDS011;65644;44.990;20.288;2024-01-27T13:14:11;3.90;;;0.90;;
76714;SDS011;65644;44.990;20.288;2024-01-27T13:16:39;1.48;;;0.40;;
76714;SDS011;65644;44.990;20.288;2024-01-27T13:19:06;6.38;;;1.20;;
76714;SDS011;65644;44.990;20.288;2024-01-27T13:21:32;2.75;;;0.50;;
76714;SDS011;65644;44.990;20.288;2024-01-27T13:23:58;1.95;;;0.32;;
76714;SDS011;65644;44.990;20.288;2024-01-27T13:26:24;4.70;;;0.43;;
76714;SDS011;65644;44.990;20.288;2024-01-27T13:28:50;4.72;;;0.90;;
76714;SDS011;65644;44.990;20.288;2024-01-27T13:31:16;2.45;;;0.43;;
76714;SDS011;65644;44.990;20.288;2024-01-27T13:33:43;4.32;;;0.70;;
76714;SDS011;65644;44.990;20.288;2024-01-27T13:36:09;2.47;;;0.35;;
76714;SDS011;65644;44.990;20.288;2024-01-27T13:38:35;1.20;;;0.60;;
76714;SDS011;65644;44.990;20.288;2024-01-27T13:41:02;4.35;;;1.23;;
76714;SDS011;65644;44.990;20.288;2024-01-27T13:43:29;5.13;;;1.58;;
76714;SDS011;65644;44.990;20.288;2024-01-27T13:45:55;4.85;;;2.30;;
76714;SDS011;65644;44.990;20.288;2024-01-27T13:48:21;3.50;;;1.55;;
76714;SDS011;65644;44.990;20.288;2024-01-27T13:50:47;3.83;;;0.68;;
76714;SDS011;65644;44.990;20.288;2024-01-27T13:53:13;8.48;;;0.85;;
76714;SDS011;65644;44.990;20.288;2024-01-27T13:55:39;3.30;;;0.85;;
76714;SDS011;65644;44.990;20.288;2024-01-27T13:58:07;2.47;;;0.80;;
76714;SDS011;65644;44.990;20.288;2024-01-27T14:00:33;2.60;;;0.30;;
76714;SDS011;65644;44.990;20.288;2024-01-27T14:03:00;4.85;;;0.63;;
76714;SDS011;65644;44.990;20.288;2024-01-27T14:05:26;3.42;;;0.40;;
76714;SDS011;65644;44.990;20.288;2024-01-27T14:07:52;7.65;;;1.13;;
76714;SDS011;65644;44.990;20.288;2024-01-27T14:10:19;2.92;;;0.32;;
76714;SDS011;65644;44.990;20.288;2024-01-27T14:12:45;2.90;;;0.40;;
76714;SDS011;65644;44.990;20.288;2024-01-27T14:15:11;2.95;;;0.20;;
76714;SDS011;65644;44.990;20.288;2024-01-27T14:17:37;3.95;;;0.30;;
76714;SDS011;65644;44.990;20.288;2024-01-27T14:20:03;10.95;;;0.88;;
76714;SDS011;65644;44.990;20.288;2024-01-27T14:22:30;3.58;;;0.20;;
76714;SDS011;65644;44.990;20.288;2024-01-27T14:24:56;4.30;;;0.70;;
76714;SDS011;65644;44.990;20.288;2024-01-27T14:27:22;4.68;;;0.40;;